Main page
Satellite images 15-day forecastsClimateMarine weather Cyclones Lightning AirportsFAQ Newsletter About
Weather : Europe Africa North America South America Asia Australia-Oceania Others
Languages Contact

Tehran, Iran

Mehrabad

latitude: 35-41N, longitude: 051-21E, elevation: 1204 m


METAR: OIII 161500Z 00000KT CAVOK 32/M07 Q1009 A2980 NOSIG
short-TAF: out of date (2692 hours)
long-TAF: OIII 161100Z 1612/1718 14005MPS CAVOK TEMPO 1623/1706 33008MPS

Time: 19:56 (15:26 UTC)

Current weather observation

The report was made 26 minutes ago, at 15:00 UTC  
Wind calm
Temperature 32°C
Humidity 8%
Pressure 1009 hPa
Visibility 10 km or more
no clouds below 1500 m and no cumulonimbus

Change units

Forecast

The report was made 3 hours and 35 minutes ago, at 11:51 UTC  
Forecast valid from 16 at 12 UTC to 17 at 18 UTC
Wind 10 kt from the Southeast
Visibility 10 km or more
no clouds below 1500 m and no cumulonimbus
Temporary
from 16 at 23 UTC to 17 at 06 UTC
Wind 16 kt from the North/Northwest
The information on this site is subject to a disclaimer
Weather : Europe Africa North America South America Asia Australia-Oceania Others
Satellite images 15-day forecastsClimateMarine weather Cyclones Lightning AirportsFAQ Languages Contact Newsletter About